Time;durP1;ratioP1;P1;durP2;ratioP2;P2;SDS_P1;SDS_P2;PMS_P1;PMS_P2;Temp;Humidity;BMP_temperature;BMP_pressure;BME280_temperature;BME280_humidity;BME280_pressure;Samples;Min_cycle;Max_cycle;Signal;HPM_P1;HPM_P2
2022/09/28 00:01:54;;;;;;;0.00;0.00;;;;;;;11.83;64.43;99874.91;7359888;19;20010;-58
2022/09/28 00:04:20;;;;;;;0.00;0.00;;;;;;;11.86;64.28;99873.91;7358847;19;20010;-59
2022/09/28 00:06:46;;;;;;;0.00;0.00;;;;;;;11.87;64.33;99875.63;7360378;19;20009;-59
2022/09/28 00:09:14;;;;;;;0.00;0.00;;;;;;;11.80;64.79;99866.28;7358793;19;20003;-58
2022/09/28 00:11:40;;;;;;;0.00;0.00;;;;;;;11.89;64.40;99871.19;7358636;19;20029;-58
2022/09/28 00:14:06;;;;;;;0.00;0.00;;;;;;;11.91;64.75;99877.19;7358164;19;20006;-59
2022/09/28 00:16:38;;;;;;;0.00;0.00;;;;;;;11.95;64.40;99873.53;7357913;19;20026;-57
2022/09/28 00:19:05;;;;;;;0.00;0.00;;;;;;;11.91;64.29;99869.34;7357191;19;20035;-59
2022/09/28 00:21:33;;;;;;;0.00;0.00;;;;;;;11.95;64.38;99870.91;7359221;19;20010;-59
2022/09/28 00:24:11;;;;;;;;;;;;;;;11.98;63.10;99868.19;7359449;19;20006;-58
2022/09/28 00:26:39;;;;;;;0.00;0.00;;;;;;;11.94;64.45;99871.84;7357775;19;20709;-59
2022/09/28 00:29:06;;;;;;;0.00;0.00;;;;;;;11.91;64.19;99861.50;7355882;19;20006;-59
2022/09/28 00:31:33;;;;;;;0.00;0.00;;;;;;;11.88;64.16;99862.47;7359103;19;20003;-60
2022/09/28 00:34:00;;;;;;;0.00;0.00;;;;;;;11.82;64.35;99846.19;7357025;19;20045;-58
2022/09/28 00:36:31;;;;;;;0.00;0.00;;;;;;;11.84;64.18;99857.44;7357379;19;20014;-59
2022/09/28 00:38:57;;;;;;;0.00;0.00;;;;;;;11.80;64.34;99853.22;7356970;19;20018;-58
2022/09/28 00:41:27;;;;;;;0.00;0.00;;;;;;;11.79;64.35;99851.50;7357089;19;20027;-59
2022/09/28 00:44:13;;;;;;;0.00;0.00;;;;;;;11.74;64.61;99848.22;7358622;19;20002;-56
2022/09/28 00:46:39;;;;;;;0.00;0.00;;;;;;;11.70;64.26;99843.13;7356395;19;20063;-59
2022/09/28 00:49:10;;;;;;;0.00;0.00;;;;;;;11.69;64.68;99854.50;7358547;19;26177;-59
2022/09/28 00:51:38;;;;;;;0.00;0.00;;;;;;;11.65;64.81;99850.31;7357724;19;20811;-57
2022/09/28 00:54:06;;;;;;;0.00;0.00;;;;;;;11.66;64.54;99851.19;7358925;19;20046;-57
2022/09/28 00:56:35;;;;;;;0.00;0.00;;;;;;;11.66;64.39;99848.56;7355861;19;20022;-59
2022/09/28 00:59:03;;;;;;;0.00;0.00;;;;;;;11.64;64.80;99848.59;7357273;19;20007;-59
2022/09/28 01:01:29;;;;;;;;;;;;;;;11.68;63.50;99852.81;7357830;19;20010;-59
2022/09/28 01:03:57;;;;;;;0.00;0.00;;;;;;;11.66;64.61;99856.41;7357680;19;19994;-60
2022/09/28 01:06:27;;;;;;;0.00;0.00;;;;;;;11.65;64.93;99845.06;7356576;19;20007;-59
2022/09/28 01:08:57;;;;;;;0.00;0.00;;;;;;;11.65;64.87;99845.06;7358333;19;20022;-59
2022/09/28 01:11:23;;;;;;;0.10;0.10;;;;;;;11.63;64.99;99846.91;7363441;19;20052;-58
2022/09/28 01:13:53;;;;;;;0.05;0.05;;;;;;;11.65;65.05;99844.22;7363347;19;20010;-58
2022/09/28 01:16:36;;;;;;;0.00;0.00;;;;;;;11.67;64.48;99843.25;7363950;19;20054;-58
2022/09/28 01:19:17;;;;;;;0.03;0.03;;;;;;;11.67;64.71;99856.34;7361953;19;20029;-60
2022/09/28 01:22:05;;;;;;;0.00;0.00;;;;;;;11.69;64.68;99851.03;7364991;19;20014;-59
2022/09/28 01:24:37;;;;;;;0.00;0.00;;;;;;;11.70;64.58;99856.19;7362858;19;20749;-59
2022/09/28 01:27:23;;;;;;;0.00;0.00;;;;;;;11.70;64.63;99853.56;7362156;19;20007;-59
2022/09/28 01:30:07;;;;;;;0.00;0.00;;;;;;;11.61;64.06;99838.28;7360120;19;20007;-58
2022/09/28 01:32:55;;;;;;;0.05;0.05;;;;;;;11.75;64.06;99852.53;7362571;19;20011;-59
2022/09/28 01:35:25;;;;;;;0.00;0.00;;;;;;;11.73;64.89;99851.78;7362884;19;20011;-59
2022/09/28 01:38:10;;;;;;;0.00;0.00;;;;;;;11.73;65.08;99846.53;7361623;19;20049;-59
2022/09/28 01:40:36;;;;;;;0.00;0.00;;;;;;;11.73;64.73;99851.78;7363066;19;20007;-57
2022/09/28 01:43:06;;;;;;;0.00;0.00;;;;;;;11.67;64.81;99842.41;7364499;19;21106;-57
2022/09/28 01:45:56;;;;;;;0.00;0.00;;;;;;;11.75;64.61;99858.63;7363483;19;20477;-59
2022/09/28 01:48:39;;;;;;;0.00;0.00;;;;;;;11.74;64.78;99861.31;7363576;19;20020;-59
2022/09/28 01:51:09;;;;;;;0.00;0.00;;;;;;;11.73;65.09;99857.84;7358678;19;20025;-58
2022/09/28 01:53:40;;;;;;;0.00;0.00;;;;;;;11.74;64.46;99858.69;7362633;19;20117;-59
2022/09/28 01:56:14;;;;;;;0.00;0.00;;;;;;;11.73;64.59;99859.63;7362640;19;20754;-59
2022/09/28 01:58:48;;;;;;;0.00;0.00;;;;;;;11.61;64.44;99840.06;7354829;19;20007;-59
2022/09/28 02:01:29;;;;;;;0.00;0.00;;;;;;;11.69;64.66;99866.72;7367197;19;20010;-59
2022/09/28 02:04:06;;;;;;;0.00;0.00;;;;;;;11.65;64.60;99866.00;7365804;19;20050;-58
2022/09/28 02:06:53;;;;;;;0.00;0.00;;;;;;;11.65;63.91;99860.75;7365150;19;20010;-59
2022/09/28 02:09:29;;;;;;;0.00;0.00;;;;;;;11.48;64.55;99842.28;7365936;19;20053;-60
2022/09/28 02:12:05;;;;;;;0.00;0.00;;;;;;;11.58;64.38;99859.31;7367924;19;20010;-59
2022/09/28 02:14:33;;;;;;;0.00;0.00;;;;;;;11.54;64.94;99857.72;7364486;19;20027;-58
2022/09/28 02:17:00;;;;;;;0.00;0.00;;;;;;;11.50;65.08;99850.91;7362855;19;20749;-59
2022/09/28 02:19:28;;;;;;;0.00;0.00;;;;;;;11.46;65.13;99849.38;7358275;19;20010;-60
2022/09/28 02:22:12;;;;;;;0.00;0.00;;;;;;;11.45;64.43;99845.03;7366150;19;20011;-59
2022/09/28 02:24:52;;;;;;;0.00;0.00;;;;;;;11.39;64.61;99860.97;7364052;19;20002;-59
2022/09/28 02:27:27;;;;;;;0.00;0.00;;;;;;;11.37;64.25;99861.03;7366968;19;20017;-59
2022/09/28 02:29:53;;;;;;;0.00;0.00;;;;;;;11.31;65.01;99857.81;7362595;19;20006;-59
2022/09/28 02:32:19;;;;;;;0.00;0.00;;;;;;;11.28;65.40;99856.16;7366642;19;21310;-58
2022/09/28 02:34:44;;;;;;;0.00;0.00;;;;;;;11.26;65.43;99864.97;7367083;19;20349;-59
2022/09/28 02:37:10;;;;;;;0.00;0.00;;;;;;;11.03;65.22;99824.03;7363850;19;20073;-59
2022/09/28 02:39:36;;;;;;;0.00;0.00;;;;;;;11.24;65.55;99864.16;7367400;19;20496;-59
2022/09/28 02:42:20;;;;;;;0.00;0.00;;;;;;;11.25;64.84;99860.63;7364331;19;20015;-59
2022/09/28 02:45:23;;;;;;;0.00;0.00;;;;;;;11.25;64.91;99858.03;7367691;19;20004;-59
2022/09/28 02:48:02;;;;;;;0.00;0.00;;;;;;;11.23;65.33;99857.25;7259310;19;2004215;-58
2022/09/28 02:50:43;;;;;;;0.00;0.00;;;;;;;11.22;64.84;99856.41;7364786;19;20010;-59
2022/09/28 02:53:43;;;;;;;0.00;0.00;;;;;;;11.22;64.78;99860.78;7365806;19;20826;-60
2022/09/28 02:56:35;;;;;;;0.00;0.00;;;;;;;11.21;65.02;99864.31;7262439;19;2003977;-58
2022/09/28 02:59:21;;;;;;;0.00;0.00;;;;;;;11.15;64.74;99858.41;7352792;19;20139;-58
2022/09/28 03:02:18;;;;;;;0.00;0.00;;;;;;;11.16;64.77;99861.88;7359597;19;20010;-59
2022/09/28 03:05:14;;;;;;;0.00;0.00;;;;;;;11.10;64.82;99857.72;7250251;19;2004447;-59
2022/09/28 03:07:52;;;;;;;0.00;0.00;;;;;;;11.08;65.13;99859.53;7258751;19;2004115;-59
2022/09/28 03:10:47;;;;;;;0.00;0.00;;;;;;;11.06;64.38;99856.13;7365568;19;20006;-59
2022/09/28 03:13:15;;;;;;;0.00;0.00;;;;;;;10.95;65.52;99847.88;7260543;19;2004433;-59
2022/09/28 03:15:40;;;;;;;0.00;0.00;;;;;;;10.97;65.71;99851.25;7363307;19;20109;-59
2022/09/28 03:18:06;;;;;;;0.00;0.00;;;;;;;10.93;65.70;99849.66;7361885;19;20111;-59
2022/09/28 03:20:32;;;;;;;0.10;0.10;;;;;;;10.90;65.94;99844.56;7359880;19;20039;-57
2022/09/28 03:22:58;;;;;;;0.00;0.00;;;;;;;10.85;65.66;99846.50;7364220;19;20023;-60
2022/09/28 03:25:24;;;;;;;0.00;0.00;;;;;;;10.81;66.00;99844.91;7363510;19;20027;-60
2022/09/28 03:27:49;;;;;;;0.00;0.00;;;;;;;10.79;66.19;99851.94;7363337;19;20018;-58
2022/09/28 03:30:15;;;;;;;0.00;0.00;;;;;;;10.77;66.08;99857.22;7359672;19;20474;-59
2022/09/28 03:32:40;;;;;;;0.08;0.08;;;;;;;10.75;66.17;99855.59;7364445;19;20006;-59
2022/09/28 03:35:08;;;;;;;0.00;0.00;;;;;;;10.73;65.77;99860.84;7362926;19;20014;-59
2022/09/28 03:37:33;;;;;;;0.10;0.10;;;;;;;10.70;66.23;99862.75;7362071;19;20025;-58
2022/09/28 03:39:59;;;;;;;0.00;0.00;;;;;;;10.69;66.24;99871.47;7366185;19;20002;-59
2022/09/28 03:42:24;;;;;;;0.00;0.00;;;;;;;10.67;66.62;99881.13;7357941;19;20006;-58
2022/09/28 03:44:50;;;;;;;0.00;0.00;;;;;;;10.64;66.15;99877.72;7366261;19;20014;-59
2022/09/28 03:47:16;;;;;;;0.00;0.00;;;;;;;10.64;66.80;99875.13;7361629;19;20024;-58
2022/09/28 03:49:42;;;;;;;0.00;0.00;;;;;;;10.63;66.17;99878.59;7362136;19;20093;-59
2022/09/28 03:52:07;;;;;;;0.00;0.00;;;;;;;10.59;66.49;99866.59;7363912;19;20153;-59
2022/09/28 03:54:33;;;;;;;0.05;0.05;;;;;;;10.64;66.67;99867.28;7361283;19;20357;-59
2022/09/28 03:56:58;;;;;;;0.03;0.03;;;;;;;10.63;66.49;99868.16;7366012;19;20006;-59
2022/09/28 03:59:24;;;;;;;0.00;0.00;;;;;;;10.54;66.83;99839.81;7363119;19;20010;-59
2022/09/28 04:01:51;;;;;;;0.00;0.00;;;;;;;10.67;66.54;99868.06;7362770;19;20010;-59
2022/09/28 04:04:16;;;;;;;0.00;0.00;;;;;;;10.56;66.55;99855.41;7364362;19;20010;-60
2022/09/28 04:06:42;;;;;;;0.00;0.00;;;;;;;10.68;66.64;99870.63;7365159;19;20007;-59
2022/09/28 04:09:08;;;;;;;0.00;0.00;;;;;;;10.70;66.74;99874.03;7361794;19;20006;-59
2022/09/28 04:11:33;;;;;;;0.00;0.00;;;;;;;10.71;66.88;99874.88;7365067;19;20021;-59
2022/09/28 04:13:59;;;;;;;0.00;0.00;;;;;;;10.73;67.18;99873.06;7362047;19;20500;-59
2022/09/28 04:16:25;;;;;;;0.00;0.00;;;;;;;10.75;66.57;99873.88;7366739;19;20025;-59
2022/09/28 04:18:50;;;;;;;0.00;0.00;;;;;;;10.75;66.69;99881.72;7363402;19;20015;-58
2022/09/28 04:21:18;;;;;;;0.00;0.00;;;;;;;10.79;66.72;99883.28;7363368;19;20100;-59
2022/09/28 04:23:43;;;;;;;;;;;;;;;10.85;65.23;99877.84;7363058;19;20018;-58
2022/09/28 04:26:15;;;;;;;0.00;0.00;;;;;;;10.85;66.63;99883.06;7365319;19;21192;-60
2022/09/28 04:31:26;;;;;;;0.00;0.00;;;;;;;10.78;66.65;99871.13;7364413;19;20494;-59
2022/09/28 04:33:52;;;;;;;0.00;0.00;;;;;;;10.84;66.73;99876.13;7363693;19;20518;-59
2022/09/28 04:36:18;;;;;;;0.00;0.00;;;;;;;10.86;67.03;99872.56;7363089;19;20023;-59
2022/09/28 04:38:44;;;;;;;0.00;0.00;;;;;;;10.87;67.10;99876.03;7361943;19;20023;-57
2022/09/28 04:41:10;;;;;;;0.00;0.00;;;;;;;10.89;67.21;99874.19;7363180;19;20427;-59
2022/09/28 04:43:36;;;;;;;0.00;0.00;;;;;;;10.78;67.05;99856.31;7366107;19;20014;-58
2022/09/28 04:46:04;;;;;;;0.00;0.00;;;;;;;10.92;67.18;99874.09;7370255;19;20002;-60
2022/09/28 04:48:29;;;;;;;;;;;;;;;10.98;65.70;99881.69;7371161;19;20604;-59
2022/09/28 04:50:57;;;;;;;0.10;0.10;;;;;;;10.96;66.98;99880.91;7368159;19;19915;-59
2022/09/28 04:53:23;;;;;;;0.00;0.00;;;;;;;10.99;67.03;99891.22;7370509;19;20007;-59
2022/09/28 04:56:06;;;;;;;0.00;0.00;;;;;;;11.02;66.54;99885.91;7367825;19;20022;-57
2022/09/28 04:58:34;;;;;;;0.10;0.10;;;;;;;11.02;66.80;99880.66;7366694;19;20033;-60
2022/09/28 05:01:03;;;;;;;0.00;0.00;;;;;;;11.03;67.03;99871.91;7367136;19;20011;-59
2022/09/28 05:03:28;;;;;;;0.10;0.10;;;;;;;11.03;67.34;99882.38;7370301;19;20096;-59
2022/09/28 05:05:54;;;;;;;0.00;0.00;;;;;;;11.05;66.92;99880.56;7367052;19;20122;-60
2022/09/28 05:08:19;;;;;;;0.00;0.00;;;;;;;11.06;67.13;99876.19;7370596;19;20558;-60
2022/09/28 05:10:45;;;;;;;0.00;0.00;;;;;;;11.05;66.78;99880.56;7366538;19;20777;-59
2022/09/28 05:13:12;;;;;;;0.00;0.00;;;;;;;11.06;66.94;99881.41;7370155;19;20009;-58
2022/09/28 05:15:40;;;;;;;0.00;0.00;;;;;;;11.05;67.18;99877.97;7368826;19;20501;-58
2022/09/28 05:18:06;;;;;;;0.00;0.00;;;;;;;11.04;67.15;99873.63;7369115;19;20350;-59
2022/09/28 05:20:33;;;;;;;0.00;0.00;;;;;;;11.04;66.75;99884.06;7365838;19;20019;-59
2022/09/28 05:22:58;;;;;;;0.00;0.00;;;;;;;11.05;66.88;99879.69;7370214;19;20042;-59
2022/09/28 05:25:24;;;;;;;0.00;0.00;;;;;;;11.05;66.67;99869.25;7369010;19;20744;-59
2022/09/28 05:27:56;;;;;;;0.00;0.00;;;;;;;11.07;66.54;99872.66;7367886;19;20423;-55
2022/09/28 05:30:22;;;;;;;0.00;0.00;;;;;;;11.04;66.75;99872.78;7365099;19;20006;-58
2022/09/28 05:32:49;;;;;;;0.00;0.00;;;;;;;11.02;66.98;99872.84;7367151;19;20018;-57
2022/09/28 05:35:15;;;;;;;0.00;0.00;;;;;;;11.02;66.53;99875.44;7367402;19;20029;-59
2022/09/28 05:37:42;;;;;;;0.00;0.00;;;;;;;11.00;66.80;99873.78;7367361;19;20018;-58
2022/09/28 05:40:08;;;;;;;0.10;0.10;;;;;;;10.97;66.83;99871.31;7367613;19;20010;-58
2022/09/28 05:42:33;;;;;;;0.00;0.00;;;;;;;10.96;66.58;99880.06;7369908;19;20077;-59
2022/09/28 05:44:59;;;;;;;0.00;0.00;;;;;;;10.92;67.03;99874.09;7368416;19;20038;-58
2022/09/28 05:47:25;;;;;;;0.10;0.10;;;;;;;10.90;67.01;99878.53;7366572;19;20461;-59
2022/09/28 05:49:52;;;;;;;0.00;0.00;;;;;;;10.86;66.94;99875.19;7367853;19;20022;-59
2022/09/28 05:52:18;;;;;;;0.00;0.00;;;;;;;10.81;66.95;99877.09;7367594;19;20409;-59
2022/09/28 05:54:43;;;;;;;0.00;0.00;;;;;;;10.78;67.16;99876.34;7368211;19;20031;-58
2022/09/28 05:57:09;;;;;;;0.00;0.00;;;;;;;10.73;66.84;99878.28;7366472;19;20698;-58
2022/09/28 05:59:35;;;;;;;0.00;0.00;;;;;;;10.71;67.02;99875.75;7359157;19;20018;-59
2022/09/28 06:02:00;;;;;;;0.00;0.00;;;;;;;10.67;66.57;99878.50;7365990;19;20010;-59
2022/09/28 06:04:26;;;;;;;0.00;0.00;;;;;;;10.62;67.11;99876.91;7365950;19;20482;-58
2022/09/28 06:06:51;;;;;;;0.00;0.00;;;;;;;10.58;66.90;99883.16;7360939;19;20024;-59
2022/09/28 06:09:17;;;;;;;0.05;0.05;;;;;;;10.56;67.37;99879.75;7367432;19;20014;-59
2022/09/28 06:11:42;;;;;;;0.00;0.00;;;;;;;10.52;66.67;99883.38;7367866;19;20011;-59
2022/09/28 06:14:08;;;;;;;0.00;0.00;;;;;;;10.48;67.52;99879.16;7366541;19;20094;-59
2022/09/28 06:16:33;;;;;;;0.00;0.00;;;;;;;10.45;67.65;99878.44;7366195;19;20082;-59
2022/09/28 06:19:00;;;;;;;0.00;0.00;;;;;;;10.43;67.24;99875.84;7365552;19;20019;-58
2022/09/28 06:21:25;;;;;;;0.03;0.03;;;;;;;10.38;67.35;99878.63;7363386;19;20742;-59
2022/09/28 06:23:51;;;;;;;0.00;0.00;;;;;;;10.32;67.84;99883.22;7367424;19;20027;-59
2022/09/28 06:26:17;;;;;;;0.00;0.00;;;;;;;10.32;67.74;99889.28;7364372;19;20340;-59
2022/09/28 06:28:42;;;;;;;0.00;0.00;;;;;;;10.32;67.70;99891.03;7363048;19;20089;-59
2022/09/28 06:31:08;;;;;;;0.00;0.00;;;;;;;10.29;67.60;99888.53;7365450;19;20011;-59
2022/09/28 06:33:34;;;;;;;0.00;0.00;;;;;;;10.26;67.63;99886.03;7363897;19;20013;-59
2022/09/28 06:36:00;;;;;;;0.00;0.00;;;;;;;10.21;67.69;99882.72;7360584;19;20010;-59
2022/09/28 06:38:25;;;;;;;0.00;0.00;;;;;;;10.22;67.53;99887.88;7364861;19;20020;-60
2022/09/28 06:40:51;;;;;;;0.00;0.00;;;;;;;10.22;68.08;99881.78;7365977;19;20116;-59
2022/09/28 06:43:16;;;;;;;0.00;0.00;;;;;;;10.21;67.94;99900.97;7360873;19;20014;-58
2022/09/28 06:45:42;;;;;;;0.00;0.00;;;;;;;10.20;67.80;99901.88;7351540;19;20007;-59
2022/09/28 06:48:09;;;;;;;0.00;0.00;;;;;;;10.18;67.84;99901.06;7362516;19;20497;-59
2022/09/28 06:50:38;;;;;;;0.00;0.00;;;;;;;10.14;68.15;99903.78;7357739;19;21341;-60
2022/09/28 06:53:05;;;;;;;0.00;0.00;;;;;;;10.15;67.94;99909.88;7367352;19;20356;-60
2022/09/28 06:55:31;;;;;;;0.00;0.00;;;;;;;10.14;67.91;99908.16;7367067;19;20017;-59
2022/09/28 06:58:04;;;;;;;0.00;0.00;;;;;;;10.13;68.17;99904.69;7367019;19;20002;-60
2022/09/28 07:00:33;;;;;;;0.00;0.00;;;;;;;10.13;68.42;99914.25;7363466;19;20003;-59
2022/09/28 07:03:00;;;;;;;0.00;0.00;;;;;;;10.10;68.18;99910.00;7359230;19;20003;-57
2022/09/28 07:05:26;;;;;;;0.00;0.00;;;;;;;10.02;68.41;99893.75;7350141;19;20002;-59
2022/09/28 07:07:57;;;;;;;0.00;0.00;;;;;;;10.13;67.93;99909.91;7354098;19;20037;-59
2022/09/28 07:10:24;;;;;;;0.00;0.00;;;;;;;10.11;68.60;99916.94;7353686;19;20011;-58
2022/09/28 07:12:50;;;;;;;0.00;0.00;;;;;;;10.12;67.81;99918.63;7353465;19;20089;-58
2022/09/28 07:15:17;;;;;;;0.00;0.00;;;;;;;10.12;68.71;99912.56;7354054;19;20006;-57
2022/09/28 07:17:42;;;;;;;0.00;0.00;;;;;;;10.14;68.77;99921.22;7353688;19;21362;-58
2022/09/28 07:20:08;;;;;;;0.00;0.00;;;;;;;10.17;68.42;99912.41;7357128;19;20006;-58
2022/09/28 07:22:33;;;;;;;0.00;0.00;;;;;;;10.10;68.53;99904.78;7352231;19;20019;-59
2022/09/28 07:24:59;;;;;;;0.00;0.00;;;;;;;10.21;68.16;99916.63;7354043;19;20374;-59
2022/09/28 07:27:25;;;;;;;0.00;0.00;;;;;;;10.22;68.59;99923.53;7354566;19;20877;-58
2022/09/28 07:29:52;;;;;;;0.00;0.00;;;;;;;10.27;68.87;99926.88;7357187;19;20015;-59
2022/09/28 07:32:20;;;;;;;0.00;0.00;;;;;;;10.29;68.78;99920.72;7355598;19;20980;-59
2022/09/28 07:34:47;;;;;;;0.00;0.00;;;;;;;10.31;68.60;99918.06;7356336;19;20012;-59
2022/09/28 07:37:13;;;;;;;0.00;0.00;;;;;;;10.35;68.63;99910.06;7355379;19;20017;-57
2022/09/28 07:42:28;;;;;;;0.00;0.00;;;;;;;10.46;68.99;99920.13;7352524;19;21603;-58
2022/09/28 07:44:53;;;;;;;0.00;0.00;;;;;;;10.53;69.07;99918.16;7355496;19;20023;-57
2022/09/28 07:47:25;;;;;;;0.00;0.00;;;;;;;10.60;68.73;99911.84;7354632;19;20006;-58
2022/09/28 07:49:51;;;;;;;0.00;0.00;;;;;;;10.69;68.65;99918.47;7355881;19;20011;-58
2022/09/28 07:52:17;;;;;;;0.00;0.00;;;;;;;10.69;68.73;99903.66;7353802;19;20025;-58
2022/09/28 07:54:42;;;;;;;0.00;0.00;;;;;;;10.86;68.58;99916.13;7352683;19;20015;-57
2022/09/28 07:57:08;;;;;;;0.00;0.00;;;;;;;10.95;68.93;99912.28;7354261;19;20052;-59
2022/09/28 07:59:33;;;;;;;0.00;0.00;;;;;;;11.05;68.59;99911.94;7354223;19;20013;-56
2022/09/28 08:01:59;;;;;;;0.00;0.00;;;;;;;11.18;68.77;99917.53;7351691;19;19998;-58
2022/09/28 08:04:24;;;;;;;0.00;0.00;;;;;;;11.26;68.75;99904.19;7348891;19;20010;-58
2022/09/28 08:06:49;;;;;;;0.00;0.00;;;;;;;11.43;68.80;99918.28;7349977;19;20490;-59
2022/09/28 08:09:15;;;;;;;0.00;0.00;;;;;;;11.58;68.63;99922.06;7353020;19;20450;-60
2022/09/28 08:11:42;;;;;;;0.00;0.00;;;;;;;11.70;68.25;99918.97;7351903;19;20086;-59
2022/09/28 08:14:09;;;;;;;0.00;0.00;;;;;;;11.83;68.56;99931.59;7352924;19;20002;-59
2022/09/28 08:16:35;;;;;;;0.00;0.00;;;;;;;11.94;68.33;99918.94;7352202;19;20021;-59
2022/09/28 08:19:01;;;;;;;0.00;0.00;;;;;;;11.91;68.23;99898.13;7354990;19;20848;-59
2022/09/28 08:21:44;;;;;;;0.00;0.00;;;;;;;12.13;67.97;99919.03;7360644;19;20018;-59
2022/09/28 08:24:14;;;;;;;0.05;0.05;;;;;;;12.28;67.75;99922.78;7358710;19;20763;-59
2022/09/28 08:26:41;;;;;;;0.00;0.00;;;;;;;12.36;67.69;99910.19;7355573;19;20040;-59
2022/09/28 08:29:07;;;;;;;0.00;0.00;;;;;;;12.50;67.47;99912.22;7357673;19;20023;-57
2022/09/28 08:31:33;;;;;;;0.00;0.00;;;;;;;12.59;67.59;99912.69;7356371;19;20006;-59
2022/09/28 08:33:58;;;;;;;0.00;0.00;;;;;;;12.69;67.23;99907.91;7360760;19;20023;-58
2022/09/28 08:36:24;;;;;;;0.00;0.00;;;;;;;12.79;67.39;99910.97;7358004;19;21665;-59
2022/09/28 08:38:49;;;;;;;0.00;0.00;;;;;;;12.87;66.92;99914.06;7341760;19;20014;-59
2022/09/28 08:41:43;;;;;;;0.00;0.00;;;;;;;12.99;67.13;99916.16;7356859;19;20852;-58
2022/09/28 08:44:22;;;;;;;0.00;0.00;;;;;;;13.10;67.23;99913.91;7246532;19;2004345;-57
2022/09/28 08:47:03;;;;;;;0.00;0.00;;;;;;;13.20;66.74;99912.56;7357123;19;20041;-58
2022/09/28 08:49:35;;;;;;;0.00;0.00;;;;;;;13.31;66.59;99916.50;7357859;19;20018;-59
2022/09/28 08:52:06;;;;;;;0.00;0.00;;;;;;;13.39;66.99;99909.13;7358261;19;20023;-59
2022/09/28 08:54:32;;;;;;;0.00;0.00;;;;;;;13.48;66.68;99908.66;7355782;19;20010;-59
2022/09/28 08:57:26;;;;;;;0.00;0.00;;;;;;;13.65;66.71;99905.25;7357469;19;21843;-57
2022/09/28 08:59:54;;;;;;;0.00;0.00;;;;;;;13.76;66.58;99916.94;7249474;19;2003989;-59
2022/09/28 09:02:32;;;;;;;0.00;0.00;;;;;;;13.68;66.05;99863.13;7353592;19;20002;-59
2022/09/28 09:05:13;;;;;;;0.00;0.00;;;;;;;14.18;66.47;99907.88;7353682;19;20605;-58
2022/09/28 09:08:03;;;;;;;0.00;0.00;;;;;;;14.36;66.01;99902.63;7354897;19;20769;-59
2022/09/28 09:10:37;;;;;;;0.08;0.08;;;;;;;14.56;65.52;99905.09;7353759;19;20028;-58
2022/09/28 09:13:31;;;;;;;0.00;0.00;;;;;;;14.86;66.63;99912.31;7332417;19;20070;-59
2022/09/28 09:16:17;;;;;;;0.10;0.10;;;;;;;15.24;66.33;99908.47;7351923;19;20091;-59
2022/09/28 09:19:03;;;;;;;0.00;0.00;;;;;;;15.65;65.66;99913.25;7355083;19;20186;-59
2022/09/28 09:21:28;;;;;;;0.05;0.05;;;;;;;15.92;64.29;99894.22;7356061;19;20018;-57
2022/09/28 09:24:02;;;;;;;0.10;0.10;;;;;;;16.27;63.49;99900.91;7335697;19;20007;-58
2022/09/28 09:26:38;;;;;;;0.00;0.00;;;;;;;16.61;63.12;99899.72;7308732;19;20044;-59
2022/09/28 09:29:12;;;;;;;0.00;0.00;;;;;;;16.97;63.16;99905.50;7352634;19;20010;-60
2022/09/28 09:32:03;;;;;;;0.00;0.00;;;;;;;17.26;63.28;99901.91;7315214;19;20033;-58
2022/09/28 09:34:44;;;;;;;0.00;0.00;;;;;;;17.45;62.69;99900.75;7348255;19;20003;-59
2022/09/28 09:37:18;;;;;;;0.00;0.00;;;;;;;17.62;60.93;99903.13;7351443;19;20006;-58
2022/09/28 09:39:56;;;;;;;0.10;0.10;;;;;;;17.94;62.05;99897.56;7355886;19;20106;-59
2022/09/28 09:42:28;;;;;;;;;;;;;;;18.30;63.63;99900.44;7353111;19;20010;-59
2022/09/28 09:45:22;;;;;;;0.00;0.00;;;;;;;18.61;60.89;99900.97;7352169;19;19939;-58
2022/09/28 09:47:52;;;;;;;0.10;0.10;;;;;;;18.93;58.42;99898.75;7248068;19;2004059;-58
2022/09/28 09:50:28;;;;;;;0.05;0.05;;;;;;;19.16;57.74;99910.38;7351195;19;20010;-59
2022/09/28 09:53:03;;;;;;;0.10;0.10;;;;;;;19.43;58.53;99907.56;7351960;19;20467;-59
2022/09/28 09:55:44;;;;;;;0.08;0.08;;;;;;;19.50;57.23;99907.97;7352122;19;20739;-59
2022/09/28 09:58:18;;;;;;;0.00;0.00;;;;;;;19.50;57.05;99902.66;7351073;19;20486;-59
2022/09/28 10:00:47;;;;;;;0.00;0.00;;;;;;;19.48;56.60;99901.94;7351087;19;20007;-58
2022/09/28 10:03:33;;;;;;;0.00;0.00;;;;;;;19.62;58.78;99901.81;7349535;19;20014;-59
2022/09/28 10:06:29;;;;;;;0.10;0.10;;;;;;;19.77;58.44;99895.41;7349253;19;20518;-59
2022/09/28 10:09:02;;;;;;;0.03;0.03;;;;;;;19.87;57.29;99900.84;7240512;19;2004456;-59
2022/09/28 10:11:35;;;;;;;0.10;0.10;;;;;;;19.89;56.31;99894.47;7343449;19;20002;-58
2022/09/28 10:14:02;;;;;;;0.00;0.00;;;;;;;19.92;55.07;99904.84;7347704;19;19998;-59
2022/09/28 10:16:31;;;;;;;0.05;0.05;;;;;;;20.02;53.01;99907.69;7203923;19;2836073;-58
2022/09/28 10:18:57;;;;;;;0.00;0.00;;;;;;;20.04;54.66;99904.91;7350094;19;20882;-57
2022/09/28 10:21:23;;;;;;;0.03;0.03;;;;;;;20.08;54.21;99901.06;7351774;19;20010;-60
2022/09/28 10:23:56;;;;;;;0.00;0.00;;;;;;;20.25;54.84;99889.19;7351940;19;21315;-58
2022/09/28 10:26:34;;;;;;;0.00;0.00;;;;;;;20.51;55.80;99892.53;7356611;19;20607;-59
2022/09/28 10:29:25;;;;;;;0.08;0.08;;;;;;;20.87;56.68;99894.97;7355967;19;20944;-58
2022/09/28 10:31:54;;;;;;;0.10;0.10;;;;;;;21.03;52.42;99891.09;7353672;19;20856;-59
2022/09/28 10:34:28;;;;;;;0.00;0.00;;;;;;;21.33;53.45;99891.34;7356607;19;20007;-59
2022/09/28 10:37:08;;;;;;;0.10;0.10;;;;;;;21.44;53.09;99886.03;7334504;19;20126;-59
2022/09/28 10:39:43;;;;;;;0.00;0.00;;;;;;;21.46;53.28;99884.09;7350502;19;20013;-59
2022/09/28 10:42:11;;;;;;;0.10;0.10;;;;;;;21.38;50.52;99881.19;7349651;19;20036;-60
2022/09/28 10:44:49;;;;;;;0.00;0.00;;;;;;;21.36;52.73;99883.16;7355718;19;20025;-60
2022/09/28 10:47:18;;;;;;;0.10;0.10;;;;;;;21.18;49.48;99881.91;7346568;19;20011;-59
2022/09/28 10:49:47;;;;;;;0.00;0.00;;;;;;;20.99;49.23;99883.41;7352290;19;20015;-59
2022/09/28 10:52:30;;;;;;;0.00;0.00;;;;;;;20.86;51.97;99882.66;7349775;19;20030;-58
2022/09/28 10:54:56;;;;;;;0.00;0.00;;;;;;;20.58;50.68;99869.84;7352743;19;20017;-57
2022/09/28 10:57:33;;;;;;;0.10;0.10;;;;;;;20.47;52.54;99868.88;7352904;19;20003;-57
2022/09/28 10:59:59;;;;;;;0.00;0.00;;;;;;;20.27;52.10;99861.56;7354279;19;20810;-59
2022/09/28 11:02:34;;;;;;;0.10;0.10;;;;;;;20.42;52.33;99865.69;7353404;19;20010;-58
2022/09/28 11:05:02;;;;;;;0.10;0.10;;;;;;;20.43;51.19;99851.50;7349202;19;20664;-59
2022/09/28 11:07:31;;;;;;;0.00;0.00;;;;;;;20.66;51.23;99863.00;7339714;19;20010;-58
2022/09/28 11:09:57;;;;;;;0.08;0.08;;;;;;;20.81;51.39;99860.97;7341032;19;20018;-59
2022/09/28 11:12:41;;;;;;;0.10;0.10;;;;;;;21.18;51.99;99863.34;7339749;19;20114;-58
2022/09/28 11:15:10;;;;;;;0.10;0.10;;;;;;;21.34;49.90;99868.28;7344573;19;20034;-59
2022/09/28 11:17:39;;;;;;;0.10;0.10;;;;;;;21.43;49.89;99847.13;7352220;19;20015;-59
2022/09/28 11:20:22;;;;;;;0.00;0.00;;;;;;;21.76;53.00;99853.31;7352583;19;20477;-58
2022/09/28 11:22:53;;;;;;;0.03;0.03;;;;;;;21.89;50.04;99853.97;7352996;19;20503;-59
2022/09/28 11:25:29;;;;;;;0.10;0.10;;;;;;;22.14;49.31;99859.94;7348229;19;20010;-57
2022/09/28 11:27:57;;;;;;;0.10;0.10;;;;;;;22.32;48.46;99850.41;7352360;19;20018;-59
2022/09/28 11:30:43;;;;;;;0.00;0.00;;;;;;;22.43;48.99;99852.16;7352348;19;20037;-58
2022/09/28 11:33:23;;;;;;;0.10;0.10;;;;;;;22.37;48.45;99848.19;7351557;19;20003;-59
2022/09/28 11:36:12;;;;;;;0.10;0.10;;;;;;;22.19;48.12;99833.78;7348326;19;20462;-59
2022/09/28 11:39:09;;;;;;;0.00;0.00;;;;;;;22.11;49.19;99841.59;7351487;19;20013;-58
2022/09/28 11:41:59;;;;;;;0.10;0.10;;;;;;;21.93;49.11;99833.31;7250103;19;2004329;-59
2022/09/28 11:44:36;;;;;;;0.10;0.10;;;;;;;21.76;48.67;99837.38;7348174;19;20979;-59
2022/09/28 11:47:19;;;;;;;0.05;0.05;;;;;;;21.62;48.90;99840.34;7353443;19;20019;-59
2022/09/28 11:49:59;;;;;;;0.00;0.00;;;;;;;21.52;49.37;99840.25;7353531;19;20002;-59
2022/09/28 11:52:42;;;;;;;0.00;0.00;;;;;;;21.45;49.91;99837.25;7349897;19;20014;-59
2022/09/28 11:55:18;;;;;;;0.00;0.00;;;;;;;21.41;49.70;99835.81;7347844;19;20399;-59
2022/09/28 11:57:49;;;;;;;0.10;0.10;;;;;;;21.30;49.27;99835.84;7346683;19;20014;-58
2022/09/28 12:00:27;;;;;;;0.10;0.10;;;;;;;21.26;49.89;99847.66;7345879;19;20647;-58